sim
Sign-in with your pilot id or email,
or register
Callsign
Passwort

Schedule Details

Flight Number: RYR5142 (4)
Departure: Karlsruhe/Baden-Baden Airport (EDSB) at 06:50
Arrival: Thessaloniki International Airport (LGTS) at 09:25
Route: Ryanair Passenger Schedule. Enter filed route here before submitting Pirep.

Weather Information
Getting current METAR information for EDSB 230620Z 03005KT CAVOK 15/13 Q1025
Getting current METAR information for LGTS 230620Z VRB02KT CAVOK 28/18 Q1019 NOSIG

Schedule Frequency

Route Map